sensor_id;sensor_type;location;lat;lon;timestamp;pressure;altitude;pressure_sealevel;temperature;humidity
11525;BME280;5819;49.648;8.330;2022-09-09T00:00:12;99888.28;;;15.85;100.00
11525;BME280;5819;49.648;8.330;2022-09-09T00:02:45;99879.22;;;16.02;100.00
11525;BME280;5819;49.648;8.330;2022-09-09T00:05:23;99889.66;;;16.14;100.00
11525;BME280;5819;49.648;8.330;2022-09-09T00:07:58;99882.63;;;16.15;100.00
11525;BME280;5819;49.648;8.330;2022-09-09T00:10:28;99884.38;;;16.03;100.00
11525;BME280;5819;49.648;8.330;2022-09-09T00:13:04;99878.78;;;16.08;100.00
11525;BME280;5819;49.648;8.330;2022-09-09T00:15:38;99881.69;;;16.16;100.00
11525;BME280;5819;49.648;8.330;2022-09-09T00:18:16;99883.38;;;16.17;100.00
11525;BME280;5819;49.648;8.330;2022-09-09T00:20:49;99883.59;;;16.14;100.00
11525;BME280;5819;49.648;8.330;2022-09-09T00:23:24;99883.44;;;16.04;100.00
11525;BME280;5819;49.648;8.330;2022-09-09T00:26:01;99875.97;;;15.98;100.00
11525;BME280;5819;49.648;8.330;2022-09-09T00:28:31;99877.16;;;15.94;100.00
11525;BME280;5819;49.648;8.330;2022-09-09T00:31:11;99872.66;;;15.96;100.00
11525;BME280;5819;49.648;8.330;2022-09-09T00:33:41;99874.94;;;16.01;100.00
11525;BME280;5819;49.648;8.330;2022-09-09T00:36:13;99872.53;;;15.98;100.00
11525;BME280;5819;49.648;8.330;2022-09-09T00:38:45;99870.97;;;15.95;100.00
11525;BME280;5819;49.648;8.330;2022-09-09T00:41:21;99867.81;;;15.90;100.00
11525;BME280;5819;49.648;8.330;2022-09-09T00:43:56;99875.97;;;15.98;100.00
11525;BME280;5819;49.648;8.330;2022-09-09T00:46:37;99869.34;;;16.05;100.00
11525;BME280;5819;49.648;8.330;2022-09-09T00:49:15;99865.53;;;16.09;100.00
11525;BME280;5819;49.648;8.330;2022-09-09T00:51:58;99869.97;;;16.09;100.00
11525;BME280;5819;49.648;8.330;2022-09-09T00:54:33;99873.78;;;16.05;100.00
11525;BME280;5819;49.648;8.330;2022-09-09T00:57:13;99865.25;;;16.01;100.00
11525;BME280;5819;49.648;8.330;2022-09-09T00:59:46;99874.81;;;16.02;100.00
11525;BME280;5819;49.648;8.330;2022-09-09T01:02:25;99867.59;;;15.93;100.00
11525;BME280;5819;49.648;8.330;2022-09-09T01:04:59;99857.00;;;15.95;100.00
11525;BME280;5819;49.648;8.330;2022-09-09T01:07:28;99859.88;;;15.91;100.00
11525;BME280;5819;49.648;8.330;2022-09-09T01:09:57;99860.09;;;15.88;100.00
11525;BME280;5819;49.648;8.330;2022-09-09T01:12:33;99858.09;;;15.92;100.00
11525;BME280;5819;49.648;8.330;2022-09-09T01:15:09;99860.41;;;15.84;100.00
11525;BME280;5819;49.648;8.330;2022-09-09T01:17:53;99865.84;;;15.81;100.00
11525;BME280;5819;49.648;8.330;2022-09-09T01:20:30;99859.28;;;15.75;100.00
11525;BME280;5819;49.648;8.330;2022-09-09T01:23:16;99851.28;;;15.77;100.00
11525;BME280;5819;49.648;8.330;2022-09-09T01:26:11;99853.44;;;15.72;100.00
11525;BME280;5819;49.648;8.330;2022-09-09T01:28:43;99860.78;;;15.67;100.00
11525;BME280;5819;49.648;8.330;2022-09-09T01:31:18;99858.69;;;15.59;100.00
11525;BME280;5819;49.648;8.330;2022-09-09T01:33:48;99863.81;;;15.61;100.00
11525;BME280;5819;49.648;8.330;2022-09-09T01:36:21;99856.59;;;15.64;100.00
11525;BME280;5819;49.648;8.330;2022-09-09T01:38:52;99870.53;;;15.65;100.00
11525;BME280;5819;49.648;8.330;2022-09-09T01:41:22;99870.03;;;15.60;100.00
11525;BME280;5819;49.648;8.330;2022-09-09T01:44:00;99863.19;;;15.57;100.00
11525;BME280;5819;49.648;8.330;2022-09-09T01:46:29;99860.38;;;15.60;100.00
11525;BME280;5819;49.648;8.330;2022-09-09T01:49:00;99857.84;;;15.59;100.00
11525;BME280;5819;49.648;8.330;2022-09-09T01:51:30;99860.56;;;15.57;100.00
11525;BME280;5819;49.648;8.330;2022-09-09T01:54:03;99857.25;;;15.55;100.00
11525;BME280;5819;49.648;8.330;2022-09-09T01:56:41;99854.94;;;15.51;100.00
11525;BME280;5819;49.648;8.330;2022-09-09T01:59:28;99848.53;;;15.55;100.00
11525;BME280;5819;49.648;8.330;2022-09-09T02:02:09;99850.84;;;15.59;100.00
11525;BME280;5819;49.648;8.330;2022-09-09T02:04:48;99866.88;;;15.67;100.00
11525;BME280;5819;49.648;8.330;2022-09-09T02:07:38;99865.69;;;15.71;100.00
11525;BME280;5819;49.648;8.330;2022-09-09T02:10:19;99870.78;;;15.85;100.00
11525;BME280;5819;49.648;8.330;2022-09-09T02:13:04;99875.59;;;15.91;100.00
11525;BME280;5819;49.648;8.330;2022-09-09T02:15:40;99877.06;;;15.96;100.00
11525;BME280;5819;49.648;8.330;2022-09-09T02:18:12;99879.22;;;16.02;100.00
11525;BME280;5819;49.648;8.330;2022-09-09T02:20:44;99876.41;;;16.05;100.00
11525;BME280;5819;49.648;8.330;2022-09-09T02:23:14;99876.69;;;16.13;100.00
11525;BME280;5819;49.648;8.330;2022-09-09T02:25:45;99880.97;;;16.14;100.00
11525;BME280;5819;49.648;8.330;2022-09-09T02:28:24;99877.72;;;16.10;100.00
11525;BME280;5819;49.648;8.330;2022-09-09T02:30:55;99873.31;;;16.11;100.00
11525;BME280;5819;49.648;8.330;2022-09-09T02:33:35;99877.34;;;16.04;100.00
11525;BME280;5819;49.648;8.330;2022-09-09T02:36:06;99870.34;;;15.91;100.00
11525;BME280;5819;49.648;8.330;2022-09-09T02:38:45;99875.94;;;15.87;100.00
11525;BME280;5819;49.648;8.330;2022-09-09T02:41:18;99866.50;;;15.84;100.00
11525;BME280;5819;49.648;8.330;2022-09-09T02:43:50;99866.81;;;15.80;100.00
11525;BME280;5819;49.648;8.330;2022-09-09T02:46:32;99861.91;;;15.75;100.00
11525;BME280;5819;49.648;8.330;2022-09-09T02:49:09;99859.06;;;15.78;100.00
11525;BME280;5819;49.648;8.330;2022-09-09T02:51:48;99859.28;;;15.75;100.00
11525;BME280;5819;49.648;8.330;2022-09-09T02:54:24;99855.22;;;15.71;100.00
11525;BME280;5819;49.648;8.330;2022-09-09T02:56:54;99849.97;;;15.71;100.00
11525;BME280;5819;49.648;8.330;2022-09-09T02:59:33;99840.19;;;15.73;100.00
11525;BME280;5819;49.648;8.330;2022-09-09T03:02:01;99853.13;;;15.64;100.00
11525;BME280;5819;49.648;8.330;2022-09-09T03:04:30;99856.78;;;15.61;100.00
11525;BME280;5819;49.648;8.330;2022-09-09T03:06:59;99851.16;;;15.55;100.00
11525;BME280;5819;49.648;8.330;2022-09-09T03:09:30;99853.25;;;15.50;100.00
11525;BME280;5819;49.648;8.330;2022-09-09T03:11:59;99853.91;;;15.40;100.00
11525;BME280;5819;49.648;8.330;2022-09-09T03:14:29;99860.28;;;15.36;100.00
11525;BME280;5819;49.648;8.330;2022-09-09T03:16:58;99859.94;;;15.41;100.00
11525;BME280;5819;49.648;8.330;2022-09-09T03:19:31;99856.16;;;15.45;100.00
11525;BME280;5819;49.648;8.330;2022-09-09T03:21:59;99869.50;;;15.42;100.00
11525;BME280;5819;49.648;8.330;2022-09-09T03:24:29;99875.34;;;15.45;100.00
11525;BME280;5819;49.648;8.330;2022-09-09T03:26:57;99868.97;;;15.50;100.00
11525;BME280;5819;49.648;8.330;2022-09-09T03:29:25;99864.16;;;15.43;100.00
11525;BME280;5819;49.648;8.330;2022-09-09T03:31:56;99871.91;;;15.45;100.00
11525;BME280;5819;49.648;8.330;2022-09-09T03:34:25;99875.16;;;15.49;100.00
11525;BME280;5819;49.648;8.330;2022-09-09T03:36:56;99886.09;;;15.55;100.00
11525;BME280;5819;49.648;8.330;2022-09-09T03:39:24;99887.41;;;15.61;100.00
11525;BME280;5819;49.648;8.330;2022-09-09T03:41:52;99880.91;;;15.66;100.00
11525;BME280;5819;49.648;8.330;2022-09-09T03:44:21;99872.81;;;15.69;100.00
11525;BME280;5819;49.648;8.330;2022-09-09T03:46:48;99866.22;;;15.76;100.00
11525;BME280;5819;49.648;8.330;2022-09-09T03:49:16;99862.22;;;15.71;100.00
11525;BME280;5819;49.648;8.330;2022-09-09T03:51:48;99863.09;;;15.59;100.00
11525;BME280;5819;49.648;8.330;2022-09-09T03:54:17;99862.16;;;15.60;100.00
11525;BME280;5819;49.648;8.330;2022-09-09T03:56:46;99866.28;;;15.51;100.00
11525;BME280;5819;49.648;8.330;2022-09-09T03:59:14;99865.09;;;15.55;100.00
11525;BME280;5819;49.648;8.330;2022-09-09T04:01:43;99864.38;;;15.53;100.00
11525;BME280;5819;49.648;8.330;2022-09-09T04:04:11;99858.06;;;15.43;100.00
11525;BME280;5819;49.648;8.330;2022-09-09T04:06:40;99860.38;;;15.35;100.00
11525;BME280;5819;49.648;8.330;2022-09-09T04:09:09;99855.16;;;15.35;100.00
11525;BME280;5819;49.648;8.330;2022-09-09T04:11:37;99858.72;;;15.34;100.00
11525;BME280;5819;49.648;8.330;2022-09-09T04:14:05;99862.69;;;15.39;100.00
11525;BME280;5819;49.648;8.330;2022-09-09T04:16:34;99852.94;;;15.41;100.00
11525;BME280;5819;49.648;8.330;2022-09-09T04:19:04;99855.00;;;15.49;100.00
11525;BME280;5819;49.648;8.330;2022-09-09T04:21:33;99859.75;;;15.57;100.00
11525;BME280;5819;49.648;8.330;2022-09-09T04:24:02;99856.78;;;15.61;100.00
11525;BME280;5819;49.648;8.330;2022-09-09T04:26:32;99859.84;;;15.68;100.00
11525;BME280;5819;49.648;8.330;2022-09-09T04:29:01;99867.47;;;15.71;100.00
11525;BME280;5819;49.648;8.330;2022-09-09T04:31:29;99857.59;;;15.74;100.00
11525;BME280;5819;49.648;8.330;2022-09-09T04:33:57;99861.91;;;15.75;100.00
11525;BME280;5819;49.648;8.330;2022-09-09T04:36:28;99871.22;;;15.79;100.00
11525;BME280;5819;49.648;8.330;2022-09-09T04:38:59;99868.47;;;15.81;100.00
11525;BME280;5819;49.648;8.330;2022-09-09T04:41:28;99869.13;;;15.84;100.00
11525;BME280;5819;49.648;8.330;2022-09-09T04:44:00;99868.06;;;15.87;100.00
11525;BME280;5819;49.648;8.330;2022-09-09T04:46:29;99879.50;;;15.86;100.00
11525;BME280;5819;49.648;8.330;2022-09-09T04:48:57;99877.00;;;15.84;100.00
11525;BME280;5819;49.648;8.330;2022-09-09T04:51:29;99882.25;;;15.84;100.00
11525;BME280;5819;49.648;8.330;2022-09-09T04:53:57;99876.88;;;15.86;100.00
11525;BME280;5819;49.648;8.330;2022-09-09T04:56:26;99883.78;;;15.87;100.00
11525;BME280;5819;49.648;8.330;2022-09-09T04:58:57;99884.50;;;15.89;100.00
11525;BME280;5819;49.648;8.330;2022-09-09T05:01:40;99881.16;;;15.87;100.00
11525;BME280;5819;49.648;8.330;2022-09-09T05:04:08;99882.53;;;15.93;100.00
11525;BME280;5819;49.648;8.330;2022-09-09T05:06:36;99890.50;;;15.91;100.00
11525;BME280;5819;49.648;8.330;2022-09-09T05:09:04;99896.91;;;15.87;100.00
11525;BME280;5819;49.648;8.330;2022-09-09T05:11:32;99898.69;;;15.86;100.00
11525;BME280;5819;49.648;8.330;2022-09-09T05:14:08;99897.00;;;15.85;100.00
11525;BME280;5819;49.648;8.330;2022-09-09T05:16:39;99895.84;;;15.89;100.00
11525;BME280;5819;49.648;8.330;2022-09-09T05:19:07;99900.78;;;15.81;100.00
11525;BME280;5819;49.648;8.330;2022-09-09T05:21:43;99900.41;;;15.75;100.00
11525;BME280;5819;49.648;8.330;2022-09-09T05:24:12;99896.63;;;15.79;100.00
11525;BME280;5819;49.648;8.330;2022-09-09T05:26:41;99900.41;;;15.75;100.00
11525;BME280;5819;49.648;8.330;2022-09-09T05:29:09;99902.09;;;15.76;100.00
11525;BME280;5819;49.648;8.330;2022-09-09T05:31:37;99900.31;;;15.76;100.00
11525;BME280;5819;49.648;8.330;2022-09-09T05:34:13;99908.56;;;15.83;100.00
11525;BME280;5819;49.648;8.330;2022-09-09T05:36:41;99904.78;;;15.87;100.00
11525;BME280;5819;49.648;8.330;2022-09-09T05:39:09;99911.59;;;15.89;100.00
11525;BME280;5819;49.648;8.330;2022-09-09T05:41:38;99910.75;;;15.89;100.00
11525;BME280;5819;49.648;8.330;2022-09-09T05:44:06;99915.88;;;15.90;100.00
11525;BME280;5819;49.648;8.330;2022-09-09T05:46:37;99911.47;;;15.91;100.00
11525;BME280;5819;49.648;8.330;2022-09-09T05:49:06;99912.31;;;15.91;100.00
11525;BME280;5819;49.648;8.330;2022-09-09T05:51:37;99912.44;;;15.90;100.00
11525;BME280;5819;49.648;8.330;2022-09-09T05:54:09;99921.88;;;15.93;100.00
11525;BME280;5819;49.648;8.330;2022-09-09T05:56:42;99917.97;;;15.98;100.00
11525;BME280;5819;49.648;8.330;2022-09-09T05:59:14;99922.16;;;16.01;100.00
11525;BME280;5819;49.648;8.330;2022-09-09T06:01:42;99923.81;;;16.02;100.00
11525;BME280;5819;49.648;8.330;2022-09-09T06:04:19;99925.59;;;16.01;100.00
11525;BME280;5819;49.648;8.330;2022-09-09T06:06:50;99925.59;;;16.01;100.00
11525;BME280;5819;49.648;8.330;2022-09-09T06:09:21;99925.41;;;16.04;100.00
11525;BME280;5819;49.648;8.330;2022-09-09T06:11:49;99924.41;;;16.18;100.00
11525;BME280;5819;49.648;8.330;2022-09-09T06:14:19;99933.56;;;16.36;100.00
11525;BME280;5819;49.648;8.330;2022-09-09T06:16:50;99931.22;;;16.57;100.00
11525;BME280;5819;49.648;8.330;2022-09-09T06:19:22;99931.38;;;16.77;100.00
11525;BME280;5819;49.648;8.330;2022-09-09T06:21:56;99927.00;;;16.89;100.00
11525;BME280;5819;49.648;8.330;2022-09-09T06:24:26;99926.44;;;16.97;100.00
11525;BME280;5819;49.648;8.330;2022-09-09T06:26:58;99928.00;;;16.99;100.00
11525;BME280;5819;49.648;8.330;2022-09-09T06:29:31;99939.09;;;17.03;100.00
11525;BME280;5819;49.648;8.330;2022-09-09T06:32:00;99939.59;;;17.08;100.00
11525;BME280;5819;49.648;8.330;2022-09-09T06:34:29;99936.63;;;17.12;100.00
11525;BME280;5819;49.648;8.330;2022-09-09T06:37:00;99936.63;;;17.12;100.00
11525;BME280;5819;49.648;8.330;2022-09-09T06:39:35;99941.75;;;17.14;100.00
11525;BME280;5819;49.648;8.330;2022-09-09T06:42:03;99942.00;;;17.22;100.00
11525;BME280;5819;49.648;8.330;2022-09-09T06:45:10;99926.72;;;17.38;100.00
11525;BME280;5819;49.648;8.330;2022-09-09T06:47:48;99922.69;;;17.45;100.00
11525;BME280;5819;49.648;8.330;2022-09-09T06:50:16;99927.72;;;17.48;100.00
11525;BME280;5819;49.648;8.330;2022-09-09T06:52:49;99916.44;;;17.46;100.00
11525;BME280;5819;49.648;8.330;2022-09-09T06:55:18;99924.47;;;17.45;100.00
11525;BME280;5819;49.648;8.330;2022-09-09T06:57:47;99917.28;;;17.47;100.00
11525;BME280;5819;49.648;8.330;2022-09-09T07:00:21;99922.09;;;17.53;100.00
11525;BME280;5819;49.648;8.330;2022-09-09T07:02:50;99928.56;;;17.60;100.00
11525;BME280;5819;49.648;8.330;2022-09-09T07:05:19;99926.50;;;17.52;100.00
11525;BME280;5819;49.648;8.330;2022-09-09T07:07:50;99927.47;;;17.51;100.00
11525;BME280;5819;49.648;8.330;2022-09-09T07:10:19;99917.44;;;17.45;100.00
11525;BME280;5819;49.648;8.330;2022-09-09T07:12:50;99925.06;;;17.48;100.00
11525;BME280;5819;49.648;8.330;2022-09-09T07:15:21;99933.66;;;17.50;100.00
11525;BME280;5819;49.648;8.330;2022-09-09T07:17:50;99938.25;;;17.59;100.00
11525;BME280;5819;49.648;8.330;2022-09-09T07:20:20;99939.78;;;17.62;100.00
11525;BME280;5819;49.648;8.330;2022-09-09T07:22:54;99942.06;;;17.66;100.00
11525;BME280;5819;49.648;8.330;2022-09-09T07:25:23;99939.56;;;17.76;100.00
11525;BME280;5819;49.648;8.330;2022-09-09T07:27:56;99940.59;;;18.07;100.00
11525;BME280;5819;49.648;8.330;2022-09-09T07:30:25;99940.50;;;18.08;98.41
11525;BME280;5819;49.648;8.330;2022-09-09T07:32:54;99941.91;;;18.12;97.97
11525;BME280;5819;49.648;8.330;2022-09-09T07:35:24;99941.56;;;18.17;98.65
11525;BME280;5819;49.648;8.330;2022-09-09T07:37:55;99940.56;;;18.18;98.29
11525;BME280;5819;49.648;8.330;2022-09-09T07:40:25;99947.88;;;18.14;98.06
11525;BME280;5819;49.648;8.330;2022-09-09T07:42:54;99952.69;;;18.09;97.39
11525;BME280;5819;49.648;8.330;2022-09-09T07:45:22;99952.19;;;18.15;96.41
11525;BME280;5819;49.648;8.330;2022-09-09T07:47:51;99952.22;;;18.47;99.02
11525;BME280;5819;49.648;8.330;2022-09-09T07:50:19;99947.66;;;18.60;95.75
11525;BME280;5819;49.648;8.330;2022-09-09T07:52:50;99945.72;;;18.74;94.60
11525;BME280;5819;49.648;8.330;2022-09-09T07:55:19;99949.31;;;18.93;93.35
11525;BME280;5819;49.648;8.330;2022-09-09T07:57:47;99942.50;;;18.91;93.16
11525;BME280;5819;49.648;8.330;2022-09-09T08:00:16;99942.56;;;19.00;92.57
11525;BME280;5819;49.648;8.330;2022-09-09T08:02:50;99950.09;;;19.26;92.39
11525;BME280;5819;49.648;8.330;2022-09-09T08:05:18;99935.97;;;19.36;88.86
11525;BME280;5819;49.648;8.330;2022-09-09T08:07:48;99943.63;;;19.60;87.58
11525;BME280;5819;49.648;8.330;2022-09-09T08:10:16;99946.91;;;19.83;85.18
11525;BME280;5819;49.648;8.330;2022-09-09T08:12:49;99946.09;;;19.92;83.16
11525;BME280;5819;49.648;8.330;2022-09-09T08:15:37;99955.28;;;19.57;82.77
11525;BME280;5819;49.648;8.330;2022-09-09T08:18:05;99954.44;;;19.36;83.41
11525;BME280;5819;49.648;8.330;2022-09-09T08:20:37;99960.19;;;19.41;82.80
11525;BME280;5819;49.648;8.330;2022-09-09T08:23:05;99951.06;;;19.45;83.58
11525;BME280;5819;49.648;8.330;2022-09-09T08:25:34;99958.13;;;19.45;82.70
11525;BME280;5819;49.648;8.330;2022-09-09T08:28:03;99970.16;;;19.17;83.56
11525;BME280;5819;49.648;8.330;2022-09-09T08:30:32;99966.34;;;19.31;82.70
11525;BME280;5819;49.648;8.330;2022-09-09T08:33:00;99974.72;;;19.36;83.30
11525;BME280;5819;49.648;8.330;2022-09-09T08:35:28;99967.25;;;19.41;84.21
11525;BME280;5819;49.648;8.330;2022-09-09T08:37:59;99971.44;;;19.43;83.62
11525;BME280;5819;49.648;8.330;2022-09-09T08:40:31;99969.16;;;19.39;85.38
11525;BME280;5819;49.648;8.330;2022-09-09T08:43:05;99966.34;;;19.51;85.86
11525;BME280;5819;49.648;8.330;2022-09-09T08:45:39;99969.09;;;19.71;86.46
11525;BME280;5819;49.648;8.330;2022-09-09T08:48:23;99962.06;;;19.90;83.63
11525;BME280;5819;49.648;8.330;2022-09-09T08:50:56;99953.06;;;20.02;83.54
11525;BME280;5819;49.648;8.330;2022-09-09T08:53:40;99955.06;;;20.20;82.92
11525;BME280;5819;49.648;8.330;2022-09-09T08:56:13;99958.69;;;20.19;82.29
11525;BME280;5819;49.648;8.330;2022-09-09T08:58:54;99962.72;;;20.13;81.88
11525;BME280;5819;49.648;8.330;2022-09-09T09:01:55;99964.41;;;19.84;81.79
11525;BME280;5819;49.648;8.330;2022-09-09T09:04:58;99968.56;;;19.77;80.47
11525;BME280;5819;49.648;8.330;2022-09-09T09:07:39;99973.34;;;19.62;82.11
11525;BME280;5819;49.648;8.330;2022-09-09T09:10:28;99957.78;;;19.59;82.22
11525;BME280;5819;49.648;8.330;2022-09-09T09:13:14;99972.41;;;19.42;82.49
11525;BME280;5819;49.648;8.330;2022-09-09T09:15:49;99971.69;;;19.40;82.69
11525;BME280;5819;49.648;8.330;2022-09-09T09:18:20;99962.56;;;19.44;83.91
11525;BME280;5819;49.648;8.330;2022-09-09T09:20:58;99978.13;;;19.47;83.77
11525;BME280;5819;49.648;8.330;2022-09-09T09:23:39;99973.63;;;19.59;83.51
11525;BME280;5819;49.648;8.330;2022-09-09T09:26:09;99972.78;;;19.58;83.83
11525;BME280;5819;49.648;8.330;2022-09-09T09:28:40;99955.81;;;19.91;85.27
11525;BME280;5819;49.648;8.330;2022-09-09T09:31:14;99959.81;;;20.26;82.13
11525;BME280;5819;49.648;8.330;2022-09-09T09:33:49;99954.59;;;20.54;81.54
11525;BME280;5819;49.648;8.330;2022-09-09T09:36:24;99940.28;;;20.86;78.40
11525;BME280;5819;49.648;8.330;2022-09-09T09:39:03;99953.47;;;21.24;77.81
11525;BME280;5819;49.648;8.330;2022-09-09T09:41:53;99951.47;;;21.45;75.41
11525;BME280;5819;49.648;8.330;2022-09-09T09:44:25;99945.84;;;21.12;75.05
11525;BME280;5819;49.648;8.330;2022-09-09T09:47:07;99935.91;;;21.33;75.31
11525;BME280;5819;49.648;8.330;2022-09-09T09:49:36;99941.72;;;21.46;75.17
11525;BME280;5819;49.648;8.330;2022-09-09T09:52:05;99943.66;;;21.54;73.40
11525;BME280;5819;49.648;8.330;2022-09-09T09:54:38;99952.06;;;21.67;72.01
11525;BME280;5819;49.648;8.330;2022-09-09T09:57:09;99947.94;;;21.55;72.77
11525;BME280;5819;49.648;8.330;2022-09-09T09:59:40;99951.03;;;21.50;69.27
11525;BME280;5819;49.648;8.330;2022-09-09T10:02:22;99948.47;;;22.05;66.16
11525;BME280;5819;49.648;8.330;2022-09-09T10:05:04;99938.94;;;22.74;63.78
11525;BME280;5819;49.648;8.330;2022-09-09T10:07:38;99943.97;;;22.50;63.08
11525;BME280;5819;49.648;8.330;2022-09-09T10:10:20;99939.47;;;22.15;65.54
11525;BME280;5819;49.648;8.330;2022-09-09T10:12:59;99941.59;;;21.75;66.51
11525;BME280;5819;49.648;8.330;2022-09-09T10:15:41;99949.63;;;21.56;67.41
11525;BME280;5819;49.648;8.330;2022-09-09T10:18:25;99940.19;;;21.43;66.76
11525;BME280;5819;49.648;8.330;2022-09-09T10:21:05;99938.63;;;21.51;68.35
11525;BME280;5819;49.648;8.330;2022-09-09T10:23:50;99932.09;;;21.82;65.73
11525;BME280;5819;49.648;8.330;2022-09-09T10:26:32;99935.81;;;21.99;63.64
11525;BME280;5819;49.648;8.330;2022-09-09T10:29:26;99937.78;;;21.87;64.30
11525;BME280;5819;49.648;8.330;2022-09-09T10:32:11;99919.44;;;22.03;63.59
11525;BME280;5819;49.648;8.330;2022-09-09T10:34:56;99915.84;;;22.39;63.81
11525;BME280;5819;49.648;8.330;2022-09-09T10:37:40;99915.72;;;22.76;63.64
11525;BME280;5819;49.648;8.330;2022-09-09T10:40:26;99911.31;;;22.67;62.34
11525;BME280;5819;49.648;8.330;2022-09-09T10:43:04;99902.94;;;22.72;66.92
11525;BME280;5819;49.648;8.330;2022-09-09T10:45:45;99910.25;;;22.25;67.10
11525;BME280;5819;49.648;8.330;2022-09-09T10:48:30;99914.91;;;21.96;66.05
11525;BME280;5819;49.648;8.330;2022-09-09T10:51:13;99920.72;;;21.72;66.71
11525;BME280;5819;49.648;8.330;2022-09-09T10:53:53;99918.00;;;21.54;69.81
11525;BME280;5819;49.648;8.330;2022-09-09T10:56:26;99916.00;;;21.19;69.03
11525;BME280;5819;49.648;8.330;2022-09-09T10:58:59;99905.53;;;21.27;68.93
11525;BME280;5819;49.648;8.330;2022-09-09T11:01:30;99914.94;;;21.12;69.80
11525;BME280;5819;49.648;8.330;2022-09-09T11:04:03;99920.34;;;21.20;71.09
11525;BME280;5819;49.648;8.330;2022-09-09T11:06:38;99918.66;;;21.66;70.84
11525;BME280;5819;49.648;8.330;2022-09-09T11:09:14;99896.53;;;22.12;70.23
11525;BME280;5819;49.648;8.330;2022-09-09T11:11:51;99906.81;;;21.60;70.42
11525;BME280;5819;49.648;8.330;2022-09-09T11:14:28;99914.47;;;21.07;72.22
11525;BME280;5819;49.648;8.330;2022-09-09T11:17:09;99902.69;;;20.82;73.89
11525;BME280;5819;49.648;8.330;2022-09-09T11:19:40;99908.16;;;20.62;75.15
11525;BME280;5819;49.648;8.330;2022-09-09T11:22:23;99915.50;;;20.68;73.87
11525;BME280;5819;49.648;8.330;2022-09-09T11:24:59;99904.22;;;21.14;71.90
11525;BME280;5819;49.648;8.330;2022-09-09T11:27:32;99904.16;;;21.70;68.96
11525;BME280;5819;49.648;8.330;2022-09-09T11:30:14;99889.78;;;22.00;67.85
11525;BME280;5819;49.648;8.330;2022-09-09T11:36:38;99896.41;;;21.86;67.11
11525;BME280;5819;49.648;8.330;2022-09-09T11:39:30;99894.50;;;21.78;68.25
11525;BME280;5819;49.648;8.330;2022-09-09T11:42:06;99906.91;;;21.78;66.88
11525;BME280;5819;49.648;8.330;2022-09-09T11:44:34;99902.78;;;21.93;65.26
11525;BME280;5819;49.648;8.330;2022-09-09T11:47:03;99909.47;;;21.87;63.26
11525;BME280;5819;49.648;8.330;2022-09-09T11:49:43;99925.22;;;21.99;59.45
11525;BME280;5819;49.648;8.330;2022-09-09T11:52:21;99932.88;;;22.02;57.88
11525;BME280;5819;49.648;8.330;2022-09-09T11:54:55;99926.19;;;21.98;59.79
11525;BME280;5819;49.648;8.330;2022-09-09T11:57:26;99935.66;;;22.00;59.61
11525;BME280;5819;49.648;8.330;2022-09-09T11:59:58;99925.91;;;21.91;60.35
11525;BME280;5819;49.648;8.330;2022-09-09T12:02:48;99927.88;;;22.16;58.56
11525;BME280;5819;49.648;8.330;2022-09-09T12:05:16;99924.19;;;22.98;57.48
11525;BME280;5819;49.648;8.330;2022-09-09T12:07:50;99916.59;;;23.28;57.11
11525;BME280;5819;49.648;8.330;2022-09-09T12:10:26;99916.31;;;24.07;54.67
11525;BME280;5819;49.648;8.330;2022-09-09T12:13:07;99915.63;;;24.47;52.70
11525;BME280;5819;49.648;8.330;2022-09-09T12:15:46;99931.56;;;23.97;53.02
11525;BME280;5819;49.648;8.330;2022-09-09T12:18:18;99926.19;;;23.81;55.62
11525;BME280;5819;49.648;8.330;2022-09-09T12:20:56;99931.81;;;23.70;56.04
11525;BME280;5819;49.648;8.330;2022-09-09T12:23:34;99939.41;;;23.13;55.93
11525;BME280;5819;49.648;8.330;2022-09-09T12:26:29;99950.97;;;22.87;56.50
11525;BME280;5819;49.648;8.330;2022-09-09T12:29:09;99954.03;;;22.29;57.16
11525;BME280;5819;49.648;8.330;2022-09-09T12:31:44;99955.09;;;22.18;58.24
11525;BME280;5819;49.648;8.330;2022-09-09T12:34:16;99946.16;;;21.92;59.10
11525;BME280;5819;49.648;8.330;2022-09-09T12:36:51;99945.38;;;21.72;60.42
11525;BME280;5819;49.648;8.330;2022-09-09T12:39:28;99943.91;;;21.51;60.59
11525;BME280;5819;49.648;8.330;2022-09-09T12:41:59;99946.25;;;21.26;61.39
11525;BME280;5819;49.648;8.330;2022-09-09T12:44:32;99937.19;;;21.10;61.65
11525;BME280;5819;49.648;8.330;2022-09-09T12:47:01;99936.94;;;20.84;62.95
11525;BME280;5819;49.648;8.330;2022-09-09T12:49:34;99961.41;;;20.67;63.35
11525;BME280;5819;49.648;8.330;2022-09-09T12:52:07;99960.88;;;20.53;64.49
11525;BME280;5819;49.648;8.330;2022-09-09T12:54:36;99947.56;;;20.05;68.87
11525;BME280;5819;49.648;8.330;2022-09-09T12:57:11;99946.22;;;19.50;73.81
11525;BME280;5819;49.648;8.330;2022-09-09T12:59:41;99956.13;;;19.16;77.83
11525;BME280;5819;49.648;8.330;2022-09-09T13:02:18;99958.19;;;18.92;81.41
11525;BME280;5819;49.648;8.330;2022-09-09T13:04:47;99946.41;;;18.76;83.99
11525;BME280;5819;49.648;8.330;2022-09-09T13:07:17;99957.69;;;18.66;84.88
11525;BME280;5819;49.648;8.330;2022-09-09T13:09:47;99958.22;;;18.60;82.74
11525;BME280;5819;49.648;8.330;2022-09-09T13:12:18;99947.06;;;18.46;85.22
11525;BME280;5819;49.648;8.330;2022-09-09T13:14:50;99942.78;;;18.45;85.88
11525;BME280;5819;49.648;8.330;2022-09-09T13:17:21;99944.16;;;18.28;86.71
11525;BME280;5819;49.648;8.330;2022-09-09T13:19:50;99930.16;;;18.28;87.79
11525;BME280;5819;49.648;8.330;2022-09-09T13:22:29;99919.53;;;18.50;88.28
11525;BME280;5819;49.648;8.330;2022-09-09T13:25:02;99906.50;;;19.31;86.47
11525;BME280;5819;49.648;8.330;2022-09-09T13:27:33;99904.84;;;20.10;80.14
11525;BME280;5819;49.648;8.330;2022-09-09T13:30:01;99907.09;;;20.15;82.19
11525;BME280;5819;49.648;8.330;2022-09-09T13:32:29;99912.22;;;19.97;76.14
11525;BME280;5819;49.648;8.330;2022-09-09T13:34:59;99908.75;;;20.06;77.73
11525;BME280;5819;49.648;8.330;2022-09-09T13:37:32;99918.75;;;19.62;78.63
11525;BME280;5819;49.648;8.330;2022-09-09T13:40:01;99920.47;;;19.43;78.55
11525;BME280;5819;49.648;8.330;2022-09-09T13:42:32;99923.75;;;19.35;77.81